RUK56WA EGPH-EGSS
Flight info
| Callsign | RUK56WA |
|---|---|
| Flight time | 1h 1m |
| Altitude | 31000 |
| Route | GOSAM P600 FENIK L612 NAVSO DCT AKOMU DCT VAMEB UL612 LISTO |
| Aircraft | B738/M-SDE3FGILRWY/SB1 |
Departure
| Time | 2026-04-21 16:47 |
|---|---|
| Airport | Edinburgh Airport (EGPH) |
Arrival
| Time | 2026-04-21 17:48 |
|---|---|
| Airport | London Stansted Airport (EGSS) |
| Time | Latitude | Longitude | Altitude | Speed | Heading |
|---|---|---|---|---|---|
| 2026-04-21 16:27 | 55.94835 | -3.35805 | 116 ft | 0 kts | 208° |
| 2026-04-21 16:38 | 55.94840 | -3.35801 | 112 ft | 2 kts | 207° |
| 2026-04-21 16:38 | 55.94854 | -3.35787 | 112 ft | 2 kts | 208° |
| 2026-04-21 16:38 | 55.94869 | -3.35773 | 111 ft | 2 kts | 208° |
| 2026-04-21 16:39 | 55.94883 | -3.35759 | 112 ft | 2 kts | 213° |
| 2026-04-21 16:39 | 55.94892 | -3.35736 | 111 ft | 2 kts | 279° |
| 2026-04-21 16:39 | 55.94887 | -3.35708 | 113 ft | 2 kts | 295° |
| 2026-04-21 16:39 | 55.94885 | -3.35701 | 112 ft | 0 kts | 297° |
| 2026-04-21 16:41 | 55.94887 | -3.35708 | 113 ft | 2 kts | 297° |
| 2026-04-21 16:41 | 55.94906 | -3.35774 | 112 ft | 9 kts | 298° |
| 2026-04-21 16:41 | 55.94951 | -3.35860 | 115 ft | 10 kts | 341° |
| 2026-04-21 16:41 | 55.95014 | -3.35832 | 115 ft | 10 kts | 18° |
| 2026-04-21 16:42 | 55.95063 | -3.35893 | 114 ft | 9 kts | 297° |
| 2026-04-21 16:42 | 55.95092 | -3.35994 | 114 ft | 9 kts | 293° |
| 2026-04-21 16:42 | 55.95112 | -3.36099 | 115 ft | 9 kts | 288° |
| 2026-04-21 16:42 | 55.95132 | -3.36206 | 112 ft | 11 kts | 288° |
| 2026-04-21 16:43 | 55.95105 | -3.36369 | 115 ft | 19 kts | 239° |
| 2026-04-21 16:43 | 55.95019 | -3.36622 | 114 ft | 27 kts | 239° |
| 2026-04-21 16:43 | 55.94924 | -3.36902 | 112 ft | 26 kts | 239° |
| 2026-04-21 16:43 | 55.94834 | -3.37166 | 115 ft | 24 kts | 239° |
| 2026-04-21 16:44 | 55.94758 | -3.37392 | 113 ft | 23 kts | 239° |
| 2026-04-21 16:44 | 55.94683 | -3.37614 | 113 ft | 19 kts | 239° |
| 2026-04-21 16:44 | 55.94628 | -3.37777 | 112 ft | 14 kts | 239° |
| 2026-04-21 16:44 | 55.94590 | -3.37899 | 112 ft | 10 kts | 256° |
| 2026-04-21 16:45 | 55.94627 | -3.37986 | 113 ft | 9 kts | 329° |
| 2026-04-21 16:45 | 55.94682 | -3.38046 | 110 ft | 8 kts | 329° |
| 2026-04-21 16:45 | 55.94711 | -3.38071 | 110 ft | 4 kts | 357° |
| 2026-04-21 16:45 | 55.94733 | -3.38037 | 112 ft | 4 kts | 57° |
| 2026-04-21 16:46 | 55.94737 | -3.38023 | 113 ft | 0 kts | 60° |
| 2026-04-21 16:46 | 55.94794 | -3.37854 | 112 ft | 49 kts | 59° |
| 2026-04-21 16:46 | 55.95101 | -3.36948 | 113 ft | 121 kts | 59° |
| 2026-04-21 16:46 | 55.95617 | -3.35438 | 547 ft | 145 kts | 60° |
| 2026-04-21 16:47 | 55.96232 | -3.34064 | 1665 ft | 145 kts | 46° |
| 2026-04-21 16:47 | 55.97023 | -3.32801 | 2299 ft | 164 kts | 45° |
| 2026-04-21 16:47 | 55.97934 | -3.31358 | 2784 ft | 189 kts | 44° |
| 2026-04-21 16:47 | 55.98981 | -3.29702 | 3088 ft | 213 kts | 44° |
| 2026-04-21 16:48 | 56.00303 | -3.28236 | 3401 ft | 241 kts | 17° |
| 2026-04-21 16:48 | 56.02015 | -3.28503 | 4079 ft | 260 kts | 337° |
| 2026-04-21 16:48 | 56.03352 | -3.30684 | 4973 ft | 269 kts | 299° |
| 2026-04-21 16:48 | 56.03745 | -3.33943 | 5787 ft | 275 kts | 262° |
| 2026-04-21 16:49 | 56.03102 | -3.37172 | 6628 ft | 277 kts | 244° |
| 2026-04-21 16:49 | 56.02368 | -3.40289 | 7753 ft | 270 kts | 249° |
| 2026-04-21 16:49 | 56.01784 | -3.43511 | 8544 ft | 277 kts | 252° |
| 2026-04-21 16:49 | 56.01276 | -3.46885 | 9268 ft | 284 kts | 254° |
| 2026-04-21 16:50 | 56.00801 | -3.50349 | 10068 ft | 290 kts | 255° |
| 2026-04-21 16:50 | 56.00316 | -3.53885 | 10785 ft | 297 kts | 255° |
| 2026-04-21 16:50 | 55.99743 | -3.57562 | 11068 ft | 319 kts | 245° |
| 2026-04-21 16:50 | 55.98395 | -3.60744 | 11525 ft | 326 kts | 215° |
| 2026-04-21 16:51 | 55.96446 | -3.62790 | 12328 ft | 326 kts | 205° |
| 2026-04-21 16:51 | 55.94423 | -3.64672 | 13166 ft | 330 kts | 205° |
| 2026-04-21 16:51 | 55.92310 | -3.66289 | 13968 ft | 332 kts | 192° |
| 2026-04-21 16:51 | 55.90033 | -3.66987 | 14757 ft | 334 kts | 184° |
| 2026-04-21 16:52 | 55.87718 | -3.67464 | 15545 ft | 337 kts | 184° |
| 2026-04-21 16:52 | 55.85376 | -3.67911 | 16351 ft | 340 kts | 184° |
| 2026-04-21 16:52 | 55.83010 | -3.68371 | 17153 ft | 344 kts | 184° |
| 2026-04-21 16:52 | 55.80617 | -3.68851 | 17922 ft | 348 kts | 184° |
| 2026-04-21 16:53 | 55.78194 | -3.69351 | 18735 ft | 352 kts | 184° |
| 2026-04-21 16:53 | 55.75747 | -3.69868 | 19403 ft | 356 kts | 184° |
| 2026-04-21 16:53 | 55.73280 | -3.70398 | 20126 ft | 358 kts | 185° |
| 2026-04-21 16:53 | 55.70796 | -3.70935 | 20822 ft | 361 kts | 185° |
| 2026-04-21 16:54 | 55.68285 | -3.71477 | 21519 ft | 364 kts | 185° |
| 2026-04-21 16:54 | 55.65760 | -3.72023 | 22228 ft | 367 kts | 185° |
| 2026-04-21 16:54 | 55.63216 | -3.72575 | 22870 ft | 371 kts | 186° |
| 2026-04-21 16:54 | 55.60640 | -3.73134 | 23469 ft | 375 kts | 186° |
| 2026-04-21 16:55 | 55.58038 | -3.73696 | 24104 ft | 379 kts | 186° |
| 2026-04-21 16:55 | 55.55410 | -3.74264 | 24596 ft | 383 kts | 186° |
| 2026-04-21 16:55 | 55.52782 | -3.74831 | 25037 ft | 388 kts | 186° |
| 2026-04-21 16:55 | 55.50052 | -3.75418 | 25479 ft | 393 kts | 187° |
| 2026-04-21 16:56 | 55.47360 | -3.75997 | 25947 ft | 397 kts | 187° |
| 2026-04-21 16:56 | 55.44605 | -3.76589 | 26386 ft | 401 kts | 187° |
| 2026-04-21 16:56 | 55.41831 | -3.77183 | 26923 ft | 402 kts | 187° |
| 2026-04-21 16:56 | 55.39055 | -3.77777 | 27540 ft | 401 kts | 187° |
| 2026-04-21 16:57 | 55.36282 | -3.78371 | 28160 ft | 402 kts | 188° |
| 2026-04-21 16:57 | 55.33504 | -3.78964 | 28702 ft | 403 kts | 188° |
| 2026-04-21 16:57 | 55.30721 | -3.79557 | 29270 ft | 403 kts | 188° |
| 2026-04-21 16:57 | 55.27935 | -3.80149 | 29839 ft | 404 kts | 188° |
| 2026-04-21 16:58 | 55.25140 | -3.80664 | 30404 ft | 405 kts | 183° |
| 2026-04-21 16:58 | 55.22327 | -3.80354 | 30836 ft | 407 kts | 171° |
| 2026-04-21 16:58 | 55.19575 | -3.79129 | 31234 ft | 410 kts | 160° |
| 2026-04-21 16:58 | 55.16962 | -3.77105 | 31475 ft | 412 kts | 155° |
| 2026-04-21 16:59 | 55.14383 | -3.74902 | 31460 ft | 412 kts | 154° |
| 2026-04-21 16:59 | 55.09276 | -3.70441 | 31461 ft | 409 kts | 154° |
| 2026-04-21 17:00 | 55.04173 | -3.66048 | 31473 ft | 409 kts | 154° |
| 2026-04-21 17:00 | 54.99905 | -3.62431 | 31456 ft | 410 kts | 155° |
| 2026-04-21 17:01 | 54.93897 | -3.57381 | 31466 ft | 411 kts | 155° |
| 2026-04-21 17:01 | 54.88748 | -3.53073 | 31448 ft | 411 kts | 155° |
| 2026-04-21 17:02 | 54.83593 | -3.48772 | 31449 ft | 411 kts | 155° |
| 2026-04-21 17:02 | 54.78438 | -3.44483 | 31441 ft | 411 kts | 155° |
| 2026-04-21 17:03 | 54.73307 | -3.40225 | 31446 ft | 412 kts | 155° |
| 2026-04-21 17:03 | 54.68136 | -3.35947 | 31433 ft | 412 kts | 155° |
| 2026-04-21 17:04 | 54.62958 | -3.31674 | 31435 ft | 413 kts | 155° |
| 2026-04-21 17:04 | 54.57778 | -3.27412 | 31434 ft | 413 kts | 155° |
| 2026-04-21 17:05 | 54.52588 | -3.23152 | 31430 ft | 413 kts | 155° |
| 2026-04-21 17:05 | 54.47389 | -3.18899 | 31425 ft | 414 kts | 156° |
| 2026-04-21 17:06 | 54.42184 | -3.14653 | 31424 ft | 414 kts | 156° |
| 2026-04-21 17:06 | 54.36974 | -3.10415 | 31412 ft | 415 kts | 156° |
| 2026-04-21 17:07 | 54.32642 | -3.06900 | 31416 ft | 414 kts | 156° |
| 2026-04-21 17:07 | 54.26542 | -3.01964 | 31410 ft | 415 kts | 156° |
| 2026-04-21 17:08 | 54.21316 | -2.97748 | 31411 ft | 416 kts | 156° |
| 2026-04-21 17:08 | 54.16083 | -2.93538 | 31409 ft | 416 kts | 156° |
| 2026-04-21 17:09 | 54.08214 | -2.87229 | 31397 ft | 417 kts | 156° |
| 2026-04-21 17:09 | 54.02961 | -2.83030 | 31393 ft | 417 kts | 156° |
| 2026-04-21 17:10 | 53.97675 | -2.78921 | 31381 ft | 418 kts | 159° |
| 2026-04-21 17:10 | 53.92316 | -2.75109 | 31378 ft | 418 kts | 159° |
| 2026-04-21 17:11 | 53.87857 | -2.71912 | 31379 ft | 419 kts | 159° |
| 2026-04-21 17:11 | 53.82494 | -2.68047 | 31376 ft | 419 kts | 159° |
| 2026-04-21 17:12 | 53.77127 | -2.64194 | 31373 ft | 419 kts | 159° |
| 2026-04-21 17:12 | 53.71757 | -2.60353 | 31387 ft | 419 kts | 159° |
| 2026-04-21 17:13 | 53.66383 | -2.56515 | 31373 ft | 420 kts | 159° |
| 2026-04-21 17:13 | 53.60999 | -2.52684 | 31376 ft | 420 kts | 159° |
| 2026-04-21 17:14 | 53.55609 | -2.48859 | 31375 ft | 421 kts | 160° |
| 2026-04-21 17:14 | 53.50215 | -2.45039 | 31370 ft | 421 kts | 160° |
| 2026-04-21 17:15 | 53.44816 | -2.41228 | 31371 ft | 421 kts | 160° |
| 2026-04-21 17:15 | 53.39407 | -2.37423 | 31378 ft | 422 kts | 160° |
| 2026-04-21 17:16 | 53.34018 | -2.33640 | 31369 ft | 423 kts | 160° |
| 2026-04-21 17:16 | 53.28583 | -2.29832 | 31375 ft | 424 kts | 160° |
| 2026-04-21 17:17 | 53.23136 | -2.26029 | 31372 ft | 425 kts | 160° |
| 2026-04-21 17:17 | 53.17681 | -2.22232 | 31370 ft | 425 kts | 160° |
| 2026-04-21 17:18 | 53.12394 | -2.17762 | 31361 ft | 430 kts | 147° |
| 2026-04-21 17:18 | 53.07572 | -2.11843 | 31356 ft | 431 kts | 145° |
| 2026-04-21 17:19 | 53.02777 | -2.05878 | 31348 ft | 430 kts | 146° |
| 2026-04-21 17:19 | 52.97964 | -1.99993 | 31070 ft | 429 kts | 146° |
| 2026-04-21 17:20 | 52.95569 | -1.97088 | 30779 ft | 424 kts | 146° |
| 2026-04-21 17:20 | 52.93193 | -1.94216 | 30404 ft | 422 kts | 146° |
| 2026-04-21 17:20 | 52.90826 | -1.91361 | 29988 ft | 419 kts | 146° |
| 2026-04-21 17:20 | 52.88484 | -1.88539 | 29619 ft | 415 kts | 147° |
| 2026-04-21 17:21 | 52.86160 | -1.85742 | 29209 ft | 411 kts | 147° |
| 2026-04-21 17:21 | 52.84053 | -1.83208 | 28875 ft | 408 kts | 147° |
| 2026-04-21 17:21 | 52.81763 | -1.80458 | 28488 ft | 405 kts | 147° |
| 2026-04-21 17:21 | 52.79490 | -1.77731 | 28116 ft | 402 kts | 147° |
| 2026-04-21 17:22 | 52.77233 | -1.75028 | 27667 ft | 399 kts | 147° |
| 2026-04-21 17:22 | 52.74987 | -1.72355 | 27288 ft | 396 kts | 148° |
| 2026-04-21 17:22 | 52.72645 | -1.70015 | 26905 ft | 391 kts | 155° |
| 2026-04-21 17:22 | 52.70247 | -1.67936 | 26535 ft | 388 kts | 156° |
| 2026-04-21 17:23 | 52.67845 | -1.65925 | 26158 ft | 386 kts | 156° |
| 2026-04-21 17:23 | 52.65486 | -1.63957 | 25796 ft | 384 kts | 156° |
| 2026-04-21 17:23 | 52.63110 | -1.61962 | 25436 ft | 382 kts | 156° |
| 2026-04-21 17:23 | 52.60749 | -1.59965 | 25078 ft | 381 kts | 156° |
| 2026-04-21 17:24 | 52.58401 | -1.57968 | 24720 ft | 379 kts | 155° |
| 2026-04-21 17:24 | 52.56067 | -1.55976 | 24363 ft | 378 kts | 155° |
| 2026-04-21 17:24 | 52.53740 | -1.53988 | 24014 ft | 376 kts | 155° |
| 2026-04-21 17:24 | 52.51420 | -1.52008 | 23639 ft | 375 kts | 155° |
| 2026-04-21 17:25 | 52.49110 | -1.50037 | 23327 ft | 373 kts | 155° |
| 2026-04-21 17:25 | 52.46813 | -1.48080 | 22960 ft | 370 kts | 155° |
| 2026-04-21 17:25 | 52.44537 | -1.46143 | 22611 ft | 367 kts | 155° |
| 2026-04-21 17:25 | 52.42277 | -1.44222 | 22253 ft | 364 kts | 155° |
| 2026-04-21 17:26 | 52.40037 | -1.42320 | 21910 ft | 361 kts | 155° |
| 2026-04-21 17:26 | 52.37812 | -1.40434 | 21580 ft | 359 kts | 154° |
| 2026-04-21 17:26 | 52.35606 | -1.38565 | 21248 ft | 356 kts | 154° |
| 2026-04-21 17:26 | 52.33414 | -1.36710 | 20911 ft | 353 kts | 154° |
| 2026-04-21 17:27 | 52.31237 | -1.34870 | 20571 ft | 351 kts | 154° |
| 2026-04-21 17:27 | 52.29078 | -1.33039 | 20242 ft | 349 kts | 153° |
| 2026-04-21 17:27 | 52.26965 | -1.31109 | 19901 ft | 347 kts | 151° |
| 2026-04-21 17:27 | 52.24885 | -1.29129 | 19561 ft | 345 kts | 150° |
| 2026-04-21 17:28 | 52.22822 | -1.27150 | 19216 ft | 344 kts | 150° |
| 2026-04-21 17:28 | 52.20762 | -1.25183 | 18877 ft | 342 kts | 150° |
| 2026-04-21 17:28 | 52.18711 | -1.23237 | 18518 ft | 340 kts | 150° |
| 2026-04-21 17:28 | 52.16669 | -1.21308 | 18146 ft | 338 kts | 150° |
| 2026-04-21 17:29 | 52.14639 | -1.19397 | 17770 ft | 336 kts | 150° |
| 2026-04-21 17:29 | 52.12628 | -1.17508 | 17444 ft | 333 kts | 150° |
| 2026-04-21 17:29 | 52.10626 | -1.15630 | 17097 ft | 331 kts | 150° |
| 2026-04-21 17:29 | 52.08643 | -1.13773 | 16760 ft | 328 kts | 150° |
| 2026-04-21 17:30 | 52.06667 | -1.11925 | 16426 ft | 326 kts | 150° |
| 2026-04-21 17:30 | 52.04707 | -1.10094 | 16092 ft | 324 kts | 150° |
| 2026-04-21 17:30 | 52.02759 | -1.08277 | 15733 ft | 322 kts | 150° |
| 2026-04-21 17:30 | 52.00989 | -1.06114 | 15384 ft | 319 kts | 129° |
| 2026-04-21 17:31 | 51.99918 | -1.03043 | 15170 ft | 310 kts | 106° |
| 2026-04-21 17:31 | 51.99584 | -0.99658 | 14982 ft | 301 kts | 90° |
| 2026-04-21 17:31 | 51.99561 | -0.96291 | 14791 ft | 298 kts | 88° |
| 2026-04-21 17:31 | 51.99581 | -0.92935 | 14595 ft | 296 kts | 88° |
| 2026-04-21 17:32 | 51.99606 | -0.89603 | 14404 ft | 295 kts | 88° |
| 2026-04-21 17:32 | 51.99624 | -0.86288 | 14222 ft | 294 kts | 88° |
| 2026-04-21 17:32 | 51.99636 | -0.82979 | 14011 ft | 294 kts | 88° |
| 2026-04-21 17:32 | 51.99643 | -0.79664 | 13805 ft | 294 kts | 88° |
| 2026-04-21 17:33 | 51.99647 | -0.76356 | 13603 ft | 293 kts | 88° |
| 2026-04-21 17:33 | 51.99708 | -0.73075 | 13400 ft | 289 kts | 86° |
| 2026-04-21 17:33 | 51.99802 | -0.69827 | 13039 ft | 288 kts | 86° |
| 2026-04-21 17:33 | 51.99900 | -0.66587 | 12732 ft | 286 kts | 86° |
| 2026-04-21 17:34 | 51.99994 | -0.63381 | 12446 ft | 283 kts | 86° |
| 2026-04-21 17:34 | 52.00085 | -0.60196 | 12121 ft | 282 kts | 86° |
| 2026-04-21 17:34 | 52.00171 | -0.57034 | 11855 ft | 280 kts | 86° |
| 2026-04-21 17:34 | 52.00253 | -0.53936 | 11576 ft | 277 kts | 86° |
| 2026-04-21 17:35 | 52.00334 | -0.50822 | 11296 ft | 275 kts | 86° |
| 2026-04-21 17:35 | 52.00412 | -0.47736 | 11029 ft | 273 kts | 86° |
| 2026-04-21 17:35 | 52.00488 | -0.44671 | 10747 ft | 271 kts | 86° |
| 2026-04-21 17:35 | 52.00563 | -0.41631 | 10466 ft | 269 kts | 86° |
| 2026-04-21 17:36 | 52.00637 | -0.38568 | 10219 ft | 266 kts | 86° |
| 2026-04-21 17:36 | 52.00709 | -0.35589 | 9876 ft | 265 kts | 86° |
| 2026-04-21 17:36 | 52.00780 | -0.32594 | 9590 ft | 263 kts | 86° |
| 2026-04-21 17:36 | 52.00849 | -0.29652 | 9319 ft | 261 kts | 86° |
| 2026-04-21 17:37 | 52.00918 | -0.26702 | 8970 ft | 261 kts | 86° |
| 2026-04-21 17:37 | 52.00985 | -0.23803 | 8685 ft | 259 kts | 86° |
| 2026-04-21 17:37 | 52.01030 | -0.21834 | 8493 ft | 258 kts | 86° |
| 2026-04-21 17:37 | 52.01116 | -0.17982 | 8100 ft | 257 kts | 86° |
| 2026-04-21 17:38 | 52.01181 | -0.15104 | 7836 ft | 255 kts | 86° |
| 2026-04-21 17:38 | 52.01244 | -0.12239 | 7607 ft | 252 kts | 87° |
| 2026-04-21 17:38 | 52.01304 | -0.09452 | 7525 ft | 243 kts | 86° |
| 2026-04-21 17:38 | 52.01362 | -0.06756 | 7444 ft | 235 kts | 87° |
| 2026-04-21 17:39 | 52.01347 | -0.04144 | 7268 ft | 231 kts | 99° |
| 2026-04-21 17:39 | 52.00664 | -0.01827 | 6981 ft | 230 kts | 126° |
| 2026-04-21 17:39 | 51.99473 | -0.00065 | 6530 ft | 235 kts | 139° |
| 2026-04-21 17:39 | 51.98153 | 0.01523 | 6043 ft | 236 kts | 140° |
| 2026-04-21 17:40 | 51.96809 | 0.03093 | 5537 ft | 238 kts | 140° |
| 2026-04-21 17:40 | 51.95332 | 0.04292 | 5124 ft | 244 kts | 165° |
| 2026-04-21 17:40 | 51.93628 | 0.04225 | 4752 ft | 248 kts | 186° |
| 2026-04-21 17:40 | 51.91946 | 0.03595 | 4338 ft | 248 kts | 190° |
| 2026-04-21 17:41 | 51.90282 | 0.02907 | 3938 ft | 246 kts | 190° |
| 2026-04-21 17:41 | 51.88628 | 0.02239 | 3569 ft | 245 kts | 189° |
| 2026-04-21 17:41 | 51.86949 | 0.01580 | 3185 ft | 251 kts | 189° |
| 2026-04-21 17:41 | 51.85252 | 0.00894 | 3021 ft | 248 kts | 191° |
| 2026-04-21 17:42 | 51.83625 | 0.00177 | 2950 ft | 236 kts | 191° |
| 2026-04-21 17:42 | 51.82088 | -0.00504 | 2900 ft | 223 kts | 192° |
| 2026-04-21 17:42 | 51.80622 | -0.01150 | 2822 ft | 214 kts | 192° |
| 2026-04-21 17:42 | 51.79218 | -0.01718 | 2804 ft | 200 kts | 182° |
| 2026-04-21 17:43 | 51.77898 | -0.01420 | 2813 ft | 189 kts | 150° |
| 2026-04-21 17:43 | 51.76888 | -0.00180 | 2778 ft | 180 kts | 122° |
| 2026-04-21 17:43 | 51.76329 | 0.01550 | 2688 ft | 170 kts | 101° |
| 2026-04-21 17:43 | 51.76294 | 0.03389 | 2546 ft | 165 kts | 68° |
| 2026-04-21 17:44 | 51.76912 | 0.04902 | 2518 ft | 161 kts | 58° |
| 2026-04-21 17:44 | 51.77534 | 0.06406 | 2496 ft | 161 kts | 53° |
| 2026-04-21 17:44 | 51.78258 | 0.07810 | 2496 ft | 164 kts | 51° |
| 2026-04-21 17:44 | 51.79032 | 0.09162 | 2485 ft | 164 kts | 47° |
| 2026-04-21 17:45 | 51.79849 | 0.10443 | 2484 ft | 165 kts | 46° |
| 2026-04-21 17:45 | 51.80699 | 0.11734 | 2320 ft | 169 kts | 45° |
| 2026-04-21 17:45 | 51.81564 | 0.13023 | 2090 ft | 169 kts | 45° |
| 2026-04-21 17:45 | 51.82426 | 0.14312 | 1855 ft | 168 kts | 45° |
| 2026-04-21 17:46 | 51.83248 | 0.15576 | 1641 ft | 157 kts | 46° |
| 2026-04-21 17:46 | 51.83996 | 0.16712 | 1456 ft | 137 kts | 46° |
| 2026-04-21 17:46 | 51.84690 | 0.17738 | 1217 ft | 136 kts | 46° |
| 2026-04-21 17:46 | 51.85377 | 0.18783 | 1030 ft | 135 kts | 45° |
| 2026-04-21 17:47 | 51.86049 | 0.19802 | 827 ft | 134 kts | 46° |
| 2026-04-21 17:47 | 51.86728 | 0.20813 | 648 ft | 131 kts | 45° |
| 2026-04-21 17:47 | 51.87385 | 0.21801 | 468 ft | 127 kts | 45° |
| 2026-04-21 17:47 | 51.88022 | 0.22764 | 337 ft | 119 kts | 43° |
| 2026-04-21 17:48 | 51.88369 | 0.23284 | 338 ft | 79 kts | 42° |
| 2026-04-21 17:48 | 51.88659 | 0.23718 | 337 ft | 26 kts | 43° |
| 2026-04-21 17:48 | 51.88785 | 0.23917 | 336 ft | 24 kts | 49° |
| 2026-04-21 17:48 | 51.88864 | 0.24148 | 337 ft | 23 kts | 70° |
| 2026-04-21 17:49 | 51.88900 | 0.24335 | 345 ft | 12 kts | 73° |
| 2026-04-21 17:49 | 51.88913 | 0.24407 | 347 ft | 5 kts | 73° |
| 2026-04-21 17:49 | 51.88916 | 0.24421 | 348 ft | 0 kts | 73° |
| 2026-04-21 17:51 | 51.88920 | 0.24464 | 349 ft | 7 kts | 91° |
| 2026-04-21 17:51 | 51.88903 | 0.24560 | 353 ft | 11 kts | 72° |
| 2026-04-21 17:51 | 51.88970 | 0.24671 | 350 ft | 16 kts | 43° |
| 2026-04-21 17:51 | 51.89050 | 0.24790 | 352 ft | 15 kts | 43° |
| 2026-04-21 17:52 | 51.89126 | 0.24905 | 351 ft | 15 kts | 43° |
| 2026-04-21 17:52 | 51.89199 | 0.25014 | 348 ft | 14 kts | 46° |
| 2026-04-21 17:52 | 51.89241 | 0.25120 | 351 ft | 10 kts | 72° |
| 2026-04-21 17:52 | 51.89212 | 0.25218 | 353 ft | 10 kts | 133° |
| 2026-04-21 17:53 | 51.89178 | 0.25314 | 349 ft | 10 kts | 116° |
| 2026-04-21 17:53 | 51.89136 | 0.25399 | 352 ft | 10 kts | 133° |
| 2026-04-21 17:53 | 51.89092 | 0.25476 | 351 ft | 9 kts | 133° |
| 2026-04-21 17:53 | 51.89053 | 0.25544 | 348 ft | 6 kts | 133° |
| 2026-04-21 17:54 | 51.89027 | 0.25591 | 350 ft | 4 kts | 127° |
| 2026-04-21 17:54 | 51.89038 | 0.25632 | 356 ft | 4 kts | 44° |
| 2026-04-21 17:54 | 51.89055 | 0.25659 | 351 ft | 2 kts | 43° |
| 2026-04-21 17:54 | 51.89057 | 0.25662 | 351 ft | 0 kts | 43° |